Terminal Aerodrome Forecast
Issued by NWS Charleston, WV

Current Version | Previous Version | Text Only | Print | Product List | Glossary Off
Versions: 1 2 3 4 5 6 7 8 9 10 11 12 13 14 15 16 17 18 19 20 21 22 23 24

379
FTUS41 KRLX 251740 AAB
TAFEKN
TAF AMD
KEKN 251740Z 2518/2618 26012G20KT 6SM -SHRA BKN025
     FM251900 27015G24KT P6SM SCT025 BKN035
     FM260300 29014G22KT 6SM -SHSN BKN025
     FM261000 27012G20KT P6SM BKN035
     FM261700 27007KT P6SM FEW150=

USA.gov is the U.S. government's official web portal to all federal, state and local government web resources and services.